This is the latest recevied weather packets stored in our database for station/object KC1TEM-13. If no packets are shown the sender has not sent any weather packets the latest 10 day(s).
| Time | Temp. | Humidity | Pressure | Rain* | Wind** | Luminosity | Snow |
|---|---|---|---|---|---|---|---|
| 1777995319 | 24.44° C | 41% | 1009.1 hPa | 0 mm | - | 841 W/m² | - |
| 1777995015 | 24.44° C | 42% | 1009.1 hPa | 0 mm | - | 823 W/m² | - |
| 1777994712 | 24.44° C | 40% | 1009.1 hPa | 0 mm | - | 839 W/m² | - |
| 1777994408 | 23.89° C | 47% | 1009.3 hPa | 0 mm | - | 818 W/m² | - |
| 1777994103 | 23.89° C | 43% | 1009.3 hPa | 0 mm | - | 795 W/m² | - |
| 1777993801 | 23.89° C | 43% | 1009.4 hPa | 0 mm | - | 804 W/m² | - |
| 1777993497 | 23.33° C | 44% | 1009.2 hPa | 0 mm | - | 795 W/m² | - |
| 1777993197 | 22.78° C | 44% | 1009.6 hPa | 0 mm | - | 787 W/m² | - |
| 1777992895 | 22.78° C | 45% | 1009.5 hPa | 0 mm | - | 774 W/m² | - |
| 1777992593 | 22.22° C | 46% | 1009.8 hPa | 0 mm | - | 767 W/m² | - |
| 1777992290 | 22.78° C | 44% | 1009.7 hPa | 0 mm | - | 254 W/m² | - |
| 1777991988 | 22.78° C | 46% | 1009.7 hPa | 0 mm | - | 385 W/m² | - |
| 1777991685 | 22.78° C | 44% | 1009.4 hPa | 0 mm | - | 753 W/m² | - |
| 1777991382 | 22.22° C | 47% | 1009.5 hPa | 0 mm | - | 749 W/m² | - |
| 1777991079 | 21.67° C | 47% | 1009.6 hPa | 0 mm | - | 729 W/m² | - |
| 1777990777 | 21.11° C | 49% | 1009.5 hPa | 0 mm | - | 722 W/m² | - |
| 1777990473 | 21.11° C | 48% | 1009.6 hPa | 0 mm | - | 713 W/m² | - |
| 1777989867 | 20° C | 50% | 1009.5 hPa | 0 mm | - | 661 W/m² | - |
| 1777989564 | 20° C | 50% | 1009.8 hPa | 0 mm | - | 797 W/m² | - |
| 1777989260 | 19.44° C | 53% | 1009.5 hPa | 0 mm | - | 279 W/m² | - |
| 1777988957 | 19.44° C | 52% | 1009.5 hPa | 0 mm | - | 209 W/m² | - |
| 1777988653 | 19.44° C | 51% | 1009.5 hPa | 0 mm | - | 287 W/m² | - |
| 1777988350 | 18.89° C | 53% | 1009.5 hPa | 0 mm | - | 585 W/m² | - |
| 1777988047 | 18.33° C | 54% | 1009.6 hPa | 0 mm | - | 263 W/m² | - |
| 1777987742 | 18.33° C | 54% | 1009.6 hPa | 0 mm | - | 126 W/m² | - |
* Rain latest hour (hover to see other rain measurements)
** Current wind speed in m/s (hover to see current wind gust speed)